createdAt,value
2023-02-16T00:01:23.145Z,93698.47
2023-02-16T00:03:50.713Z,93700.94
2023-02-16T00:06:17.726Z,93697.47
2023-02-16T00:08:47.111Z,93694.13
2023-02-16T00:11:42.885Z,93685.91
2023-02-16T00:14:11.066Z,93689.63
2023-02-16T00:16:37.923Z,93692.22
2023-02-16T00:19:33.981Z,93695.78
2023-02-16T00:22:01.040Z,93694.38
2023-02-16T00:24:29.174Z,93687.13
2023-02-16T00:26:56.818Z,93688.59
2023-02-16T00:29:36.074Z,93683.94
2023-02-16T00:32:04.702Z,93679.75
2023-02-16T00:34:36.397Z,93684.28
2023-02-16T00:37:06.317Z,93676.19
2023-02-16T00:39:33.065Z,93668.28
2023-02-16T00:42:06.818Z,93672.84
2023-02-16T00:44:35.603Z,93669.44
2023-02-16T00:47:24.247Z,93674.28
2023-02-16T00:49:53.165Z,93677.19
2023-02-16T00:52:34.834Z,93681.09
2023-02-16T00:55:03.848Z,93669.44
2023-02-16T00:57:34.589Z,93674.31
2023-02-16T01:00:14.741Z,93683.09
2023-02-16T01:02:43.437Z,93679.53
2023-02-16T01:05:09.953Z,93676.97
2023-02-16T01:07:55.063Z,93671.31
2023-02-16T01:10:43.860Z,93678.25
2023-02-16T01:13:11.433Z,93678.59
2023-02-16T01:15:38.579Z,93679.88
2023-02-16T01:18:06.221Z,93678.25
2023-02-16T01:20:36.247Z,93673.09
2023-02-16T01:23:03.579Z,93681.16
2023-02-16T01:25:30.212Z,93674.78
2023-02-16T01:27:56.685Z,93680.69
2023-02-16T01:30:25.762Z,93674.84
2023-02-16T01:32:53.232Z,93663.03
2023-02-16T01:35:28.512Z,93672.75
2023-02-16T01:37:54.943Z,93663.59
2023-02-16T01:40:33.135Z,93657.47
2023-02-16T01:43:24.705Z,93669.56
2023-02-16T01:46:06.560Z,93657.16
2023-02-16T01:48:33.148Z,93659.09
2023-02-16T01:51:22.070Z,93657.38
2023-02-16T01:53:58.095Z,93666.00
2023-02-16T01:56:32.498Z,93658.94
2023-02-16T01:59:11.880Z,93664.78
2023-02-16T02:01:47.157Z,93663.19
2023-02-16T02:04:58.786Z,93665.34
2023-02-16T02:07:47.914Z,93650.34
2023-02-16T02:10:23.444Z,93652.81
2023-02-16T02:12:56.155Z,93653.28
2023-02-16T02:15:27.855Z,93652.16
2023-02-16T02:17:54.552Z,93647.50
2023-02-16T02:21:10.167Z,93643.31
2023-02-16T02:23:52.394Z,93651.31
2023-02-16T02:26:56.819Z,93647.88
2023-02-16T02:29:40.505Z,93647.53
2023-02-16T02:32:25.273Z,93642.72
2023-02-16T02:34:58.630Z,93648.22
2023-02-16T02:37:41.631Z,93640.19
2023-02-16T02:40:56.265Z,93637.66
2023-02-16T02:43:45.116Z,93634.03
2023-02-16T02:46:26.100Z,93633.63
2023-02-16T02:48:52.824Z,93634.28
2023-02-16T02:51:30.019Z,93630.94
2023-02-16T02:54:38.244Z,93638.84
2023-02-16T02:57:59.626Z,93634.41
2023-02-16T03:00:43.840Z,93633.63
2023-02-16T03:03:36.223Z,93636.69
2023-02-16T03:06:07.914Z,93643.00
2023-02-16T03:08:39.573Z,93636.06
2023-02-16T03:11:32.064Z,93632.34
2023-02-16T03:14:04.778Z,93625.41
2023-02-16T03:16:37.810Z,93627.84
2023-02-16T03:19:27.095Z,93630.06
2023-02-16T03:22:14.356Z,93627.03
2023-02-16T03:25:00.327Z,93632.19
2023-02-16T03:27:50.040Z,93627.69
2023-02-16T03:30:18.675Z,93629.91
2023-02-16T03:32:46.232Z,93635.22
2023-02-16T03:35:12.786Z,93643.16
2023-02-16T03:37:41.019Z,93638.16
2023-02-16T03:40:29.237Z,93648.13
2023-02-16T03:42:58.014Z,93641.06
2023-02-16T03:45:25.218Z,93639.81
2023-02-16T03:47:51.657Z,93646.75
2023-02-16T03:50:18.147Z,93646.13
2023-02-16T03:52:44.624Z,93640.16
2023-02-16T03:55:11.181Z,93645.16
2023-02-16T03:57:37.591Z,93636.44
2023-02-16T04:00:04.504Z,93641.53
2023-02-16T04:02:39.673Z,93641.44
2023-02-16T04:05:06.518Z,93650.63
2023-02-16T04:07:33.010Z,93644.28
2023-02-16T04:09:59.447Z,93647.16
2023-02-16T04:12:37.880Z,93651.75
2023-02-16T04:15:08.141Z,93648.66
2023-02-16T04:17:34.762Z,93640.72
2023-02-16T04:20:01.226Z,93647.84
2023-02-16T04:22:27.676Z,93646.28
2023-02-16T04:24:54.096Z,93646.94
2023-02-16T04:27:20.612Z,93648.88
2023-02-16T04:29:47.097Z,93647.97
2023-02-16T04:32:13.546Z,93645.09
2023-02-16T04:34:40.052Z,93650.88
2023-02-16T04:37:06.486Z,93648.34
2023-02-16T04:39:33.252Z,93643.56
2023-02-16T04:41:59.637Z,93642.94
2023-02-16T04:44:26.070Z,93642.28
2023-02-16T04:46:52.472Z,93644.38
2023-02-16T04:49:18.911Z,93648.09
2023-02-16T04:51:45.328Z,93648.13
2023-02-16T04:54:11.735Z,93638.94
2023-02-16T04:56:38.148Z,93641.97
2023-02-16T04:59:04.558Z,93644.06
2023-02-16T05:01:31.165Z,93649.06
2023-02-16T05:03:57.601Z,93650.97
2023-02-16T05:06:24.157Z,93648.09
2023-02-16T05:08:50.568Z,93649.38
2023-02-16T05:11:35.493Z,93643.91
2023-02-16T05:14:20.306Z,93653.53
2023-02-16T05:16:46.982Z,93652.59
2023-02-16T05:19:13.761Z,93653.56
2023-02-16T05:21:40.193Z,93661.59
2023-02-16T05:24:09.844Z,93659.03
2023-02-16T05:26:37.720Z,93656.75
2023-02-16T05:29:04.304Z,93661.25
2023-02-16T05:31:31.308Z,93661.56
2023-02-16T05:33:57.910Z,93660.16
2023-02-16T05:36:24.515Z,93655.81
2023-02-16T05:38:51.215Z,93660.47
2023-02-16T05:41:26.354Z,93657.75
2023-02-16T05:43:55.546Z,93663.38
2023-02-16T05:46:23.698Z,93667.75
2023-02-16T05:48:51.019Z,93663.38
2023-02-16T05:51:17.947Z,93660.34
2023-02-16T05:53:44.351Z,93669.53
2023-02-16T05:56:11.101Z,93671.94
2023-02-16T05:58:37.821Z,93677.41
2023-02-16T06:01:04.921Z,93675.00
2023-02-16T06:03:32.137Z,93685.78
2023-02-16T06:06:01.758Z,93684.81
2023-02-16T06:08:29.297Z,93685.59
2023-02-16T06:10:56.284Z,93684.00
2023-02-16T06:13:23.853Z,93682.56
2023-02-16T06:15:55.500Z,93689.16
2023-02-16T06:18:23.005Z,93688.84
2023-02-16T06:20:49.857Z,93693.81
2023-02-16T06:23:16.990Z,93691.25
2023-02-16T06:25:45.288Z,93690.94
2023-02-16T06:28:11.714Z,93702.38
2023-02-16T06:30:38.148Z,93702.53
2023-02-16T06:33:04.769Z,93698.19
2023-02-16T06:35:31.334Z,93701.88
2023-02-16T06:37:59.075Z,93703.16
2023-02-16T06:40:25.944Z,93696.41
2023-02-16T06:42:52.397Z,93697.69
2023-02-16T06:45:19.256Z,93700.09
2023-02-16T06:47:45.688Z,93692.22
2023-02-16T06:50:14.365Z,93694.94
2023-02-16T06:52:40.940Z,93693.50
2023-02-16T06:55:07.868Z,93702.84
2023-02-16T06:57:34.257Z,93690.63
2023-02-16T07:00:00.659Z,93701.38
2023-02-16T07:02:27.074Z,93704.78
2023-02-16T07:04:54.439Z,93705.75
2023-02-16T07:07:20.963Z,93710.91
2023-02-16T07:09:47.714Z,93706.22
2023-02-16T07:12:14.121Z,93708.31
2023-02-16T07:14:41.230Z,93702.81
2023-02-16T07:17:08.870Z,93712.00
2023-02-16T07:19:35.319Z,93707.34
2023-02-16T07:22:02.249Z,93710.56
2023-02-16T07:24:29.085Z,93709.41
2023-02-16T07:26:56.181Z,93712.63
2023-02-16T07:29:22.882Z,93713.13
2023-02-16T07:31:50.851Z,93714.72
2023-02-16T07:34:17.446Z,93713.59
2023-02-16T07:36:45.530Z,93723.59
2023-02-16T07:39:12.270Z,93724.53
2023-02-16T07:41:39.495Z,93729.84
2023-02-16T07:44:08.101Z,93727.25
2023-02-16T07:46:35.563Z,93726.75
2023-02-16T07:49:02.409Z,93731.75
2023-02-16T07:51:30.844Z,93724.63
2023-02-16T07:53:59.758Z,93725.91
2023-02-16T07:56:29.401Z,93731.84
2023-02-16T07:58:57.242Z,93741.34
2023-02-16T08:01:31.545Z,93739.53
2023-02-16T08:03:58.367Z,93735.78
2023-02-16T08:06:24.813Z,93737.19
2023-02-16T08:08:51.283Z,93740.09
2023-02-16T08:11:21.346Z,93742.16
2023-02-16T08:13:48.423Z,93741.50
2023-02-16T08:16:20.685Z,93747.06
2023-02-16T08:18:47.513Z,93744.00
2023-02-16T08:21:16.822Z,93745.88
2023-02-16T08:23:48.005Z,93748.88
2023-02-16T08:26:19.991Z,93751.25
2023-02-16T08:28:49.998Z,93760.84
2023-02-16T08:31:23.288Z,93755.25
2023-02-16T08:33:50.854Z,93756.13
2023-02-16T08:36:23.490Z,93754.72
2023-02-16T08:38:50.903Z,93749.59
2023-02-16T08:41:22.341Z,93748.19
2023-02-16T08:43:49.722Z,93743.38
2023-02-16T08:46:17.783Z,93739.53
2023-02-16T08:48:45.229Z,93745.06
2023-02-16T08:51:17.641Z,93752.03
2023-02-16T08:53:45.462Z,93740.88
2023-02-16T08:56:13.236Z,93739.88
2023-02-16T08:58:40.102Z,93744.00
2023-02-16T09:01:08.736Z,93736.63
2023-02-16T09:03:36.495Z,93739.44
2023-02-16T09:06:05.713Z,93743.78
2023-02-16T09:08:32.796Z,93741.09
2023-02-16T09:11:03.756Z,93743.19
2023-02-16T09:13:30.362Z,93734.88
2023-02-16T09:16:05.271Z,93741.19
2023-02-16T09:18:36.739Z,93740.63
2023-02-16T09:21:05.135Z,93731.34
2023-02-16T09:23:31.542Z,93733.22
2023-02-16T09:25:59.873Z,93726.94
2023-02-16T09:28:26.290Z,93729.56
2023-02-16T09:30:54.375Z,93729.03
2023-02-16T09:33:21.735Z,93730.28
2023-02-16T09:35:48.298Z,93731.53
2023-02-16T09:38:16.755Z,93738.19
2023-02-16T09:40:44.063Z,93728.81
2023-02-16T09:43:29.595Z,93727.84
2023-02-16T09:45:58.823Z,93734.63
2023-02-16T09:48:38.778Z,93731.59
2023-02-16T09:51:08.807Z,93728.94
2023-02-16T09:53:39.377Z,93725.00
2023-02-16T09:56:36.269Z,93722.44
2023-02-16T09:59:15.862Z,93723.13
2023-02-16T10:01:50.703Z,93724.22
2023-02-16T10:04:20.135Z,93720.06
2023-02-16T10:07:23.208Z,93725.94
2023-02-16T10:09:54.201Z,93711.69
2023-02-16T10:12:26.250Z,93718.66
2023-02-16T10:14:59.930Z,93711.47
2023-02-16T10:17:45.062Z,93714.19
2023-02-16T10:20:16.107Z,93711.56
2023-02-16T10:22:53.113Z,93714.94
2023-02-16T10:25:44.398Z,93718.41
2023-02-16T10:28:17.443Z,93728.38
2023-02-16T10:30:57.775Z,93732.41
2023-02-16T10:33:46.119Z,93715.47
2023-02-16T10:36:40.993Z,93712.22
2023-02-16T10:39:30.765Z,93714.16
2023-02-16T10:42:16.376Z,93712.34
2023-02-16T10:44:54.803Z,93711.09
2023-02-16T10:47:33.354Z,93715.22
2023-02-16T10:50:00.532Z,93712.00
2023-02-16T10:52:32.505Z,93712.31
2023-02-16T10:54:59.324Z,93725.19
2023-02-16T10:57:28.750Z,93727.13
2023-02-16T10:59:57.890Z,93712.53
2023-02-16T11:02:38.065Z,93720.28
2023-02-16T11:05:29.528Z,93714.38
2023-02-16T11:08:01.467Z,93716.69
2023-02-16T11:10:54.232Z,93716.88
2023-02-16T11:13:29.115Z,93720.75
2023-02-16T11:16:00.356Z,93720.84
2023-02-16T11:18:30.244Z,93716.63
2023-02-16T11:20:57.456Z,93711.59
2023-02-16T11:23:30.062Z,93703.78
2023-02-16T11:26:24.694Z,93694.94
2023-02-16T11:28:53.026Z,93696.41
2023-02-16T11:31:39.619Z,93696.41
2023-02-16T11:34:08.307Z,93683.94
2023-02-16T11:36:45.978Z,93689.28
2023-02-16T11:39:21.219Z,93688.16
2023-02-16T11:41:57.558Z,93689.19
2023-02-16T11:44:46.186Z,93683.50
2023-02-16T11:47:25.864Z,93678.03
2023-02-16T11:50:23.112Z,93680.63
2023-02-16T11:52:50.753Z,93684.66
2023-02-16T11:55:37.395Z,93683.69
2023-02-16T11:58:21.488Z,93677.41
2023-02-16T12:01:17.077Z,93670.91
2023-02-16T12:04:11.950Z,93669.97
2023-02-16T12:07:01.453Z,93656.56
2023-02-16T12:10:15.485Z,93668.66
2023-02-16T12:13:10.692Z,93659.75
2023-02-16T12:15:57.439Z,93657.53
2023-02-16T12:18:47.998Z,93649.50
2023-02-16T12:21:41.317Z,93655.63
2023-02-16T12:24:35.939Z,93654.81
2023-02-16T12:27:07.063Z,93654.13
2023-02-16T12:30:11.755Z,93648.66
2023-02-16T12:32:49.051Z,93647.59
2023-02-16T12:35:29.295Z,93646.81
2023-02-16T12:38:14.768Z,93641.63
2023-02-16T12:41:23.124Z,93644.81
2023-02-16T12:43:53.979Z,93645.72
2023-02-16T12:46:27.000Z,93636.31
2023-02-16T12:49:07.042Z,93635.56
2023-02-16T12:51:43.427Z,93640.84
2023-02-16T12:54:51.606Z,93637.03
2023-02-16T12:57:21.773Z,93638.41
2023-02-16T12:59:57.377Z,93630.63
2023-02-16T13:02:35.754Z,93630.38
2023-02-16T13:05:08.987Z,93624.56
2023-02-16T13:07:39.683Z,93633.00
2023-02-16T13:10:22.674Z,93625.28
2023-02-16T13:13:01.092Z,93618.72
2023-02-16T13:15:36.434Z,93627.84
2023-02-16T13:18:16.400Z,93636.88
2023-02-16T13:20:48.565Z,93622.03
2023-02-16T13:23:42.444Z,93616.06
2023-02-16T13:26:20.816Z,93613.59
2023-02-16T13:29:23.035Z,93616.25
2023-02-16T13:32:44.967Z,93617.31
2023-02-16T13:35:49.167Z,93609.31
2023-02-16T13:39:02.105Z,93606.19
2023-02-16T13:42:03.708Z,93606.66
2023-02-16T13:45:00.737Z,93611.78
2023-02-16T13:47:47.518Z,93602.34
2023-02-16T13:50:23.816Z,93596.72
2023-02-16T13:52:55.730Z,93604.59
2023-02-16T13:55:34.465Z,93597.38
2023-02-16T13:58:17.587Z,93593.69
2023-02-16T14:00:47.632Z,93601.13
2023-02-16T14:03:21.005Z,93594.28
2023-02-16T14:05:52.915Z,93616.78
2023-02-16T14:08:21.106Z,93595.19
2023-02-16T14:10:53.695Z,93598.47
2023-02-16T14:13:25.761Z,93594.59
2023-02-16T14:15:54.706Z,93592.19
2023-02-16T14:18:39.321Z,93598.97
2023-02-16T14:21:16.682Z,93598.53
2023-02-16T14:23:43.261Z,93598.78
2023-02-16T14:26:13.691Z,93606.59
2023-02-16T14:28:58.427Z,93601.84
2023-02-16T14:31:27.332Z,93608.13
2023-02-16T14:34:03.533Z,93600.19
2023-02-16T14:36:30.862Z,93610.38
2023-02-16T14:38:59.261Z,93601.06
2023-02-16T14:41:35.345Z,93596.59
2023-02-16T14:44:04.708Z,93597.13
2023-02-16T14:47:15.592Z,93600.75
2023-02-16T14:50:06.781Z,93600.66
2023-02-16T14:52:52.519Z,93601.03
2023-02-16T14:55:23.424Z,93599.94
2023-02-16T14:57:55.447Z,93597.44
2023-02-16T15:00:33.344Z,93603.13
2023-02-16T15:03:14.881Z,93604.19
2023-02-16T15:05:41.762Z,93601.31
2023-02-16T15:08:18.464Z,93605.63
2023-02-16T15:10:46.466Z,93607.41
2023-02-16T15:13:26.028Z,93601.53
2023-02-16T15:15:56.617Z,93606.94
2023-02-16T15:18:28.246Z,93610.72
2023-02-16T15:20:58.276Z,93608.09
2023-02-16T15:23:30.597Z,93602.91
2023-02-16T15:26:00.803Z,93601.19
2023-02-16T15:28:51.952Z,93602.34
2023-02-16T15:31:23.878Z,93598.88
2023-02-16T15:33:56.877Z,93595.47
2023-02-16T15:36:38.280Z,93594.91
2023-02-16T15:39:08.454Z,93599.78
2023-02-16T15:41:38.340Z,93603.56
2023-02-16T15:44:07.633Z,93597.81
2023-02-16T15:46:39.652Z,93599.75
2023-02-16T15:49:13.074Z,93586.94
2023-02-16T15:51:40.821Z,93591.59
2023-02-16T15:54:19.490Z,93584.75
2023-02-16T15:56:48.254Z,93590.31
2023-02-16T15:59:38.439Z,93583.19
2023-02-16T16:02:20.775Z,93574.66
2023-02-16T16:04:57.580Z,93576.00
2023-02-16T16:07:36.187Z,93577.28
2023-02-16T16:10:13.718Z,93574.88
2023-02-16T16:12:40.544Z,93569.81
2023-02-16T16:15:10.743Z,93567.91
2023-02-16T16:17:39.618Z,93562.47
2023-02-16T16:20:27.320Z,93566.13
2023-02-16T16:23:06.214Z,93561.75
2023-02-16T16:25:35.603Z,93578.22
2023-02-16T16:28:13.254Z,93575.03
2023-02-16T16:30:46.602Z,93577.75
2023-02-16T16:33:15.027Z,93586.09
2023-02-16T16:35:43.930Z,93578.53
2023-02-16T16:38:23.606Z,93570.09
2023-02-16T16:40:52.913Z,93574.03
2023-02-16T16:43:21.832Z,93578.25
2023-02-16T16:45:52.784Z,93577.41
2023-02-16T16:48:31.939Z,93586.63
2023-02-16T16:51:20.893Z,93573.19
2023-02-16T16:53:50.163Z,93574.22
2023-02-16T16:56:16.560Z,93578.25
2023-02-16T16:58:43.036Z,93574.97
2023-02-16T17:01:12.218Z,93572.72
2023-02-16T17:03:38.628Z,93578.91
2023-02-16T17:06:06.602Z,93573.44
2023-02-16T17:08:33.122Z,93574.31
2023-02-16T17:11:00.869Z,93574.66
2023-02-16T17:13:27.703Z,93584.47
2023-02-16T17:15:58.718Z,93584.25
2023-02-16T17:18:25.376Z,93585.75
2023-02-16T17:20:51.911Z,93581.66
2023-02-16T17:23:20.895Z,93578.59
2023-02-16T17:25:47.647Z,93580.44
2023-02-16T17:28:16.501Z,93588.72
2023-02-16T17:30:43.409Z,93589.63
2023-02-16T17:33:10.175Z,93591.88
2023-02-16T17:35:38.918Z,93589.72
2023-02-16T17:38:17.029Z,93584.16
2023-02-16T17:40:44.383Z,93592.59
2023-02-16T17:43:13.497Z,93593.16
2023-02-16T17:45:40.438Z,93607.47
2023-02-16T17:48:07.155Z,93600.19
2023-02-16T17:50:34.073Z,93597.94
2023-02-16T17:53:00.563Z,93611.38
2023-02-16T17:55:26.978Z,93616.47
2023-02-16T17:57:55.652Z,93612.25
2023-02-16T18:00:22.737Z,93614.78
2023-02-16T18:02:49.139Z,93616.38
2023-02-16T18:05:15.602Z,93617.97
2023-02-16T18:07:42.005Z,93620.94
2023-02-16T18:10:16.558Z,93621.59
2023-02-16T18:12:42.975Z,93617.97
2023-02-16T18:15:09.485Z,93615.91
2023-02-16T18:17:35.911Z,93616.94
2023-02-16T18:20:04.213Z,93605.31
2023-02-16T18:22:30.622Z,93614.56
2023-02-16T18:24:57.033Z,93606.47
2023-02-16T18:27:23.451Z,93610.44
2023-02-16T18:29:51.564Z,93608.03
2023-02-16T18:32:17.989Z,93609.28
2023-02-16T18:34:44.607Z,93608.72
2023-02-16T18:37:11.155Z,93612.91
2023-02-16T18:39:37.634Z,93619.53
2023-02-16T18:42:04.067Z,93621.13
2023-02-16T18:44:30.498Z,93624.97
2023-02-16T18:46:57.189Z,93630.22
2023-02-16T18:49:23.609Z,93632.28
2023-02-16T18:51:50.000Z,93632.84
2023-02-16T18:54:16.390Z,93637.50
2023-02-16T18:56:42.825Z,93638.66
2023-02-16T18:59:09.226Z,93639.09
2023-02-16T19:01:35.683Z,93641.06
2023-02-16T19:04:03.521Z,93641.88
2023-02-16T19:06:30.028Z,93645.06
2023-02-16T19:08:58.384Z,93640.94
2023-02-16T19:11:25.423Z,93646.97
2023-02-16T19:13:51.825Z,93647.31
2023-02-16T19:16:18.298Z,93651.88
2023-02-16T19:18:44.773Z,93645.06
2023-02-16T19:21:13.772Z,93654.38
2023-02-16T19:23:40.346Z,93649.25
2023-02-16T19:26:08.919Z,93653.13
2023-02-16T19:28:35.389Z,93644.69
2023-02-16T19:31:03.625Z,93644.25
2023-02-16T19:33:31.273Z,93653.03
2023-02-16T19:36:10.101Z,93649.72
2023-02-16T19:38:36.890Z,93652.47
2023-02-16T19:41:09.554Z,93648.25
2023-02-16T19:43:36.112Z,93655.63
2023-02-16T19:46:04.928Z,93649.94
2023-02-16T19:48:32.054Z,93650.75
2023-02-16T19:51:00.349Z,93645.06
2023-02-16T19:53:26.880Z,93655.63
2023-02-16T19:55:54.645Z,93650.47
2023-02-16T19:58:25.081Z,93651.38
2023-02-16T20:00:52.088Z,93646.69
2023-02-16T20:03:18.566Z,93645.19
2023-02-16T20:05:45.000Z,93649.59
2023-02-16T20:08:11.531Z,93648.53
2023-02-16T20:10:43.178Z,93648.81
2023-02-16T20:13:10.210Z,93654.13
2023-02-16T20:15:36.757Z,93651.66
2023-02-16T20:18:03.522Z,93641.31
2023-02-16T20:20:30.033Z,93646.78
2023-02-16T20:22:56.436Z,93635.00
2023-02-16T20:25:23.177Z,93641.53
2023-02-16T20:27:49.665Z,93638.88
2023-02-16T20:30:20.436Z,93641.63
2023-02-16T20:32:48.396Z,93637.16
2023-02-16T20:35:15.097Z,93632.75
2023-02-16T20:37:41.539Z,93634.44
2023-02-16T20:40:08.741Z,93646.28
2023-02-16T20:42:35.219Z,93644.44
2023-02-16T20:45:01.706Z,93645.69
2023-02-16T20:47:28.130Z,93647.50
2023-02-16T20:49:54.742Z,93647.28
2023-02-16T20:52:21.723Z,93648.00
2023-02-16T20:54:48.137Z,93649.59
2023-02-16T20:57:26.067Z,93654.03
2023-02-16T20:59:53.968Z,93645.50
2023-02-16T21:02:20.417Z,93652.50
2023-02-16T21:04:46.847Z,93651.69
2023-02-16T21:07:13.241Z,93649.44
2023-02-16T21:09:39.725Z,93650.38
2023-02-16T21:12:06.160Z,93652.19
2023-02-16T21:14:32.657Z,93648.09
2023-02-16T21:16:59.203Z,93649.47
2023-02-16T21:19:25.622Z,93648.91
2023-02-16T21:21:52.127Z,93644.13
2023-02-16T21:24:18.710Z,93645.72
2023-02-16T21:26:45.159Z,93645.25
2023-02-16T21:29:11.621Z,93642.84
2023-02-16T21:31:38.463Z,93645.47
2023-02-16T21:34:04.951Z,93646.66
2023-02-16T21:36:31.374Z,93640.28
2023-02-16T21:38:57.884Z,93640.19
2023-02-16T21:41:29.018Z,93643.38
2023-02-16T21:44:02.909Z,93644.84
2023-02-16T21:46:32.121Z,93641.09
2023-02-16T21:48:59.021Z,93641.78
2023-02-16T21:51:29.954Z,93638.13
2023-02-16T21:53:57.679Z,93638.25
2023-02-16T21:56:30.112Z,93637.34
2023-02-16T21:58:57.684Z,93653.16
2023-02-16T22:01:27.160Z,93647.78
2023-02-16T22:03:58.521Z,93644.72
2023-02-16T22:06:27.920Z,93640.81
2023-02-16T22:08:54.799Z,93653.84
2023-02-16T22:11:21.629Z,93643.38
2023-02-16T22:13:48.562Z,93635.91
2023-02-16T22:16:20.160Z,93640.31
2023-02-16T22:18:47.557Z,93636.94
2023-02-16T22:21:13.997Z,93633.00
2023-02-16T22:23:40.518Z,93631.84
2023-02-16T22:26:08.110Z,93632.59
2023-02-16T22:28:35.973Z,93637.81
2023-02-16T22:31:07.376Z,93628.13
2023-02-16T22:33:34.551Z,93634.03
2023-02-16T22:36:09.974Z,93636.00
2023-02-16T22:38:36.434Z,93635.22
2023-02-16T22:41:07.200Z,93633.63
2023-02-16T22:43:33.817Z,93634.72
2023-02-16T22:46:09.109Z,93633.78
2023-02-16T22:48:36.247Z,93629.78
2023-02-16T22:51:05.710Z,93636.03
2023-02-16T22:53:32.776Z,93638.50
2023-02-16T22:55:59.613Z,93640.63
2023-02-16T22:58:26.104Z,93643.38
2023-02-16T23:00:52.887Z,93640.88
2023-02-16T23:03:19.577Z,93649.03
2023-02-16T23:05:46.819Z,93646.06
2023-02-16T23:08:13.935Z,93644.00
2023-02-16T23:10:41.589Z,93640.69
2023-02-16T23:13:09.061Z,93636.69
2023-02-16T23:15:36.144Z,93640.13
2023-02-16T23:18:02.562Z,93640.75
2023-02-16T23:20:29.398Z,93651.66
2023-02-16T23:22:55.791Z,93633.56
2023-02-16T23:25:34.413Z,93647.88
2023-02-16T23:28:02.535Z,93635.97
2023-02-16T23:30:30.471Z,93660.97
2023-02-16T23:32:57.447Z,93642.81
2023-02-16T23:35:23.876Z,93642.09
2023-02-16T23:37:50.291Z,93643.25
2023-02-16T23:40:16.878Z,93643.16
2023-02-16T23:42:43.281Z,93655.88
2023-02-16T23:45:09.718Z,93643.69
2023-02-16T23:47:36.123Z,93645.28
2023-02-16T23:50:02.530Z,93653.06
2023-02-16T23:52:28.981Z,93651.09
2023-02-16T23:54:55.573Z,93648.31
2023-02-16T23:57:21.999Z,93647.31
2023-02-16T23:59:48.420Z,93647.88
